sensor_id;sensor_type;location;lat;lon;timestamp;pressure;altitude;pressure_sealevel;temperature;humidity
37610;BME280;23457;51.966;8.230;2022-12-18T00:01:33;102285.97;;;-8.49;84.64
37610;BME280;23457;51.966;8.230;2022-12-18T00:04:02;102289.69;;;-8.32;83.38
37610;BME280;23457;51.966;8.230;2022-12-18T00:06:34;102285.97;;;-8.49;82.15
37610;BME280;23457;51.966;8.230;2022-12-18T00:09:03;102291.91;;;-8.49;82.89
37610;BME280;23457;51.966;8.230;2022-12-18T00:11:30;102301.66;;;-8.66;82.87
37610;BME280;23457;51.966;8.230;2022-12-18T00:13:58;102309.03;;;-8.68;82.88
37610;BME280;23457;51.966;8.230;2022-12-18T00:16:26;102301.31;;;-8.62;82.47
37610;BME280;23457;51.966;8.230;2022-12-18T00:19:00;102300.91;;;-8.58;82.19
37610;BME280;23457;51.966;8.230;2022-12-18T00:21:29;102295.88;;;-8.58;81.85
37610;BME280;23457;51.966;8.230;2022-12-18T00:23:56;102299.31;;;-8.64;82.68
37610;BME280;23457;51.966;8.230;2022-12-18T00:26:29;102302.34;;;-8.60;82.45
37610;BME280;23457;51.966;8.230;2022-12-18T00:29:13;102302.38;;;-8.53;82.54
37610;BME280;23457;51.966;8.230;2022-12-18T00:31:42;102298.03;;;-8.54;82.42
37610;BME280;23457;51.966;8.230;2022-12-18T00:34:11;102301.66;;;-8.52;81.92
37610;BME280;23457;51.966;8.230;2022-12-18T00:36:39;102312.25;;;-8.54;81.52
37610;BME280;23457;51.966;8.230;2022-12-18T00:39:07;102299.84;;;-8.67;81.18
37610;BME280;23457;51.966;8.230;2022-12-18T00:41:34;102304.53;;;-8.84;81.88
37610;BME280;23457;51.966;8.230;2022-12-18T00:44:20;102305.81;;;-8.88;82.18
37610;BME280;23457;51.966;8.230;2022-12-18T00:46:47;102305.97;;;-8.86;81.83
37610;BME280;23457;51.966;8.230;2022-12-18T00:49:17;102308.50;;;-8.79;82.36
37610;BME280;23457;51.966;8.230;2022-12-18T00:51:44;102300.94;;;-8.93;82.25
37610;BME280;23457;51.966;8.230;2022-12-18T00:54:15;102300.22;;;-8.92;82.51
37610;BME280;23457;51.966;8.230;2022-12-18T00:56:42;102297.34;;;-9.02;83.34
37610;BME280;23457;51.966;8.230;2022-12-18T00:59:17;102302.22;;;-8.90;82.79
37610;BME280;23457;51.966;8.230;2022-12-18T01:01:45;102307.44;;;-8.88;82.66
37610;BME280;23457;51.966;8.230;2022-12-18T01:04:12;102311.75;;;-9.01;82.56
37610;BME280;23457;51.966;8.230;2022-12-18T01:06:40;102308.13;;;-8.96;81.49
37610;BME280;23457;51.966;8.230;2022-12-18T01:09:12;102310.81;;;-9.09;81.67
37610;BME280;23457;51.966;8.230;2022-12-18T01:11:39;102297.34;;;-9.02;82.54
37610;BME280;23457;51.966;8.230;2022-12-18T01:14:06;102279.00;;;-9.01;81.71
37610;BME280;23457;51.966;8.230;2022-12-18T01:16:32;102288.16;;;-9.02;81.74
37610;BME280;23457;51.966;8.230;2022-12-18T01:18:59;102293.94;;;-9.03;81.89
37610;BME280;23457;51.966;8.230;2022-12-18T01:21:26;102295.19;;;-8.92;81.76
37610;BME280;23457;51.966;8.230;2022-12-18T01:23:55;102297.88;;;-8.91;81.02
37610;BME280;23457;51.966;8.230;2022-12-18T01:26:23;102293.41;;;-9.00;80.61
37610;BME280;23457;51.966;8.230;2022-12-18T01:28:50;102313.16;;;-9.11;80.74
37610;BME280;23457;51.966;8.230;2022-12-18T01:31:28;102309.22;;;-9.16;81.03
37610;BME280;23457;51.966;8.230;2022-12-18T01:33:57;102301.66;;;-9.16;82.04
37610;BME280;23457;51.966;8.230;2022-12-18T01:36:26;102311.34;;;-9.12;82.01
37610;BME280;23457;51.966;8.230;2022-12-18T01:38:54;102309.94;;;-9.17;81.55
37610;BME280;23457;51.966;8.230;2022-12-18T01:41:23;102306.16;;;-9.06;81.62
37610;BME280;23457;51.966;8.230;2022-12-18T01:43:56;102304.19;;;-9.01;82.00
37610;BME280;23457;51.966;8.230;2022-12-18T01:46:25;102305.63;;;-8.89;82.43
37610;BME280;23457;51.966;8.230;2022-12-18T01:49:00;102299.31;;;-8.93;82.38
37610;BME280;23457;51.966;8.230;2022-12-18T01:51:32;102310.13;;;-8.87;82.17
37610;BME280;23457;51.966;8.230;2022-12-18T01:53:59;102295.75;;;-8.88;81.94
37610;BME280;23457;51.966;8.230;2022-12-18T01:56:26;102302.38;;;-8.95;81.33
37610;BME280;23457;51.966;8.230;2022-12-18T01:59:05;102297.53;;;-8.94;81.66
37610;BME280;23457;51.966;8.230;2022-12-18T02:01:34;102307.03;;;-8.98;81.04
37610;BME280;23457;51.966;8.230;2022-12-18T02:04:25;102299.16;;;-9.01;81.08
37610;BME280;23457;51.966;8.230;2022-12-18T02:07:00;102309.22;;;-9.16;81.34
37610;BME280;23457;51.966;8.230;2022-12-18T02:09:32;102319.47;;;-9.07;81.68
37610;BME280;23457;51.966;8.230;2022-12-18T02:12:19;102313.16;;;-9.11;81.71
37610;BME280;23457;51.966;8.230;2022-12-18T02:15:00;102315.84;;;-9.23;81.28
37610;BME280;23457;51.966;8.230;2022-12-18T02:17:58;102314.25;;;-9.01;81.68
37610;BME280;23457;51.966;8.230;2022-12-18T02:20:33;102313.16;;;-9.11;80.71
37610;BME280;23457;51.966;8.230;2022-12-18T02:25:43;102306.50;;;-9.17;81.65
37610;BME280;23457;51.966;8.230;2022-12-18T02:28:15;102294.47;;;-9.06;81.96
37610;BME280;23457;51.966;8.230;2022-12-18T02:30:47;102285.84;;;-9.00;81.91
37610;BME280;23457;51.966;8.230;2022-12-18T02:33:15;102278.78;;;-9.10;81.25
37610;BME280;23457;51.966;8.230;2022-12-18T02:35:45;102287.97;;;-9.25;82.47
37610;BME280;23457;51.966;8.230;2022-12-18T02:38:11;102277.88;;;-9.11;82.38
37610;BME280;23457;51.966;8.230;2022-12-18T02:40:43;102286.00;;;-9.06;82.81
37610;BME280;23457;51.966;8.230;2022-12-18T02:43:15;102279.34;;;-8.98;82.16
37610;BME280;23457;51.966;8.230;2022-12-18T02:45:53;102291.56;;;-8.94;80.85
37610;BME280;23457;51.966;8.230;2022-12-18T02:48:27;102290.13;;;-9.07;80.04
37610;BME280;23457;51.966;8.230;2022-12-18T02:51:08;102291.94;;;-9.20;80.89
37610;BME280;23457;51.966;8.230;2022-12-18T02:54:03;102289.03;;;-9.23;82.55
37610;BME280;23457;51.966;8.230;2022-12-18T02:56:46;102293.72;;;-9.19;82.01
37610;BME280;23457;51.966;8.230;2022-12-18T02:59:21;102294.81;;;-9.17;82.42
37610;BME280;23457;51.966;8.230;2022-12-18T03:05:19;102291.22;;;-9.26;82.18
37610;BME280;23457;51.966;8.230;2022-12-18T03:08:02;102299.47;;;-9.27;82.68
37610;BME280;23457;51.966;8.230;2022-12-18T03:10:57;102293.91;;;-9.17;82.75
37610;BME280;23457;51.966;8.230;2022-12-18T03:13:31;102287.63;;;-9.14;81.38
37610;BME280;23457;51.966;8.230;2022-12-18T03:16:00;102290.13;;;-9.21;81.00
37610;BME280;23457;51.966;8.230;2022-12-18T03:18:46;102293.00;;;-9.25;81.49
37610;BME280;23457;51.966;8.230;2022-12-18T03:21:15;102296.59;;;-9.23;82.01
37610;BME280;23457;51.966;8.230;2022-12-18T03:23:48;102286.53;;;-9.16;81.72
37610;BME280;23457;51.966;8.230;2022-12-18T03:26:22;102297.34;;;-9.17;81.54
37610;BME280;23457;51.966;8.230;2022-12-18T03:28:56;102295.53;;;-9.25;80.94
37610;BME280;23457;51.966;8.230;2022-12-18T03:31:29;102298.03;;;-9.18;81.99
37610;BME280;23457;51.966;8.230;2022-12-18T03:34:06;102302.03;;;-9.13;81.44
37610;BME280;23457;51.966;8.230;2022-12-18T03:36:42;102298.22;;;-9.16;81.22
37610;BME280;23457;51.966;8.230;2022-12-18T03:39:09;102286.53;;;-9.30;81.39
37610;BME280;23457;51.966;8.230;2022-12-18T03:41:44;102292.28;;;-9.17;81.74
37610;BME280;23457;51.966;8.230;2022-12-18T03:44:57;102287.06;;;-9.11;81.22
37610;BME280;23457;51.966;8.230;2022-12-18T03:47:36;102299.81;;;-9.24;80.97
37610;BME280;23457;51.966;8.230;2022-12-18T03:50:45;102300.19;;;-9.21;81.26
37610;BME280;23457;51.966;8.230;2022-12-18T03:55:45;102284.41;;;-9.13;82.60
37610;BME280;23457;51.966;8.230;2022-12-18T03:58:15;102275.03;;;-9.07;81.77
37610;BME280;23457;51.966;8.230;2022-12-18T04:00:56;102270.00;;;-9.14;81.42
37610;BME280;23457;51.966;8.230;2022-12-18T04:03:29;102268.91;;;-9.09;81.80
37610;BME280;23457;51.966;8.230;2022-12-18T04:06:02;102277.00;;;-9.11;80.49
37610;BME280;23457;51.966;8.230;2022-12-18T04:08:31;102282.94;;;-9.18;80.50
37610;BME280;23457;51.966;8.230;2022-12-18T04:11:03;102292.81;;;-9.19;80.90
37610;BME280;23457;51.966;8.230;2022-12-18T04:13:36;102291.94;;;-9.27;80.64
37610;BME280;23457;51.966;8.230;2022-12-18T04:16:13;102284.00;;;-9.30;80.73
37610;BME280;23457;51.966;8.230;2022-12-18T04:18:42;102286.31;;;-9.24;80.85
37610;BME280;23457;51.966;8.230;2022-12-18T04:21:09;102301.63;;;-9.30;81.61
37610;BME280;23457;51.966;8.230;2022-12-18T04:23:37;102303.44;;;-9.22;81.19
37610;BME280;23457;51.966;8.230;2022-12-18T04:26:04;102292.81;;;-9.19;80.75
37610;BME280;23457;51.966;8.230;2022-12-18T04:29:06;102291.03;;;-9.27;81.53
37610;BME280;23457;51.966;8.230;2022-12-18T04:31:47;102288.34;;;-9.15;81.02
37610;BME280;23457;51.966;8.230;2022-12-18T04:34:15;102291.19;;;-9.12;80.40
37610;BME280;23457;51.966;8.230;2022-12-18T04:36:47;102284.72;;;-9.24;80.90
37610;BME280;23457;51.966;8.230;2022-12-18T04:39:17;102286.34;;;-9.10;80.48
37610;BME280;23457;51.966;8.230;2022-12-18T04:41:48;102294.78;;;-9.24;81.55
37610;BME280;23457;51.966;8.230;2022-12-18T04:44:14;102294.03;;;-9.37;82.20
37610;BME280;23457;51.966;8.230;2022-12-18T04:46:41;102302.91;;;-9.19;82.18
37610;BME280;23457;51.966;8.230;2022-12-18T04:49:08;102304.88;;;-9.17;81.67
37610;BME280;23457;51.966;8.230;2022-12-18T04:51:37;102299.09;;;-9.23;80.57
37610;BME280;23457;51.966;8.230;2022-12-18T04:54:03;102299.47;;;-9.27;81.68
37610;BME280;23457;51.966;8.230;2022-12-18T04:56:31;102296.78;;;-9.21;81.21
37610;BME280;23457;51.966;8.230;2022-12-18T04:58:57;102286.34;;;-9.17;80.91
37610;BME280;23457;51.966;8.230;2022-12-18T05:01:24;102276.06;;;-9.47;83.74
37610;BME280;23457;51.966;8.230;2022-12-18T05:04:00;102272.66;;;-9.41;85.46
37610;BME280;23457;51.966;8.230;2022-12-18T05:06:27;102276.44;;;-9.23;86.43
37610;BME280;23457;51.966;8.230;2022-12-18T05:08:55;102273.75;;;-9.31;85.89
37610;BME280;23457;51.966;8.230;2022-12-18T05:11:22;102273.72;;;-9.53;87.01
37610;BME280;23457;51.966;8.230;2022-12-18T05:13:48;102273.91;;;-9.44;87.78
37610;BME280;23457;51.966;8.230;2022-12-18T05:16:15;102275.56;;;-9.16;85.88
37610;BME280;23457;51.966;8.230;2022-12-18T05:18:42;102264.25;;;-9.13;84.86
37610;BME280;23457;51.966;8.230;2022-12-18T05:21:15;102271.44;;;-9.16;85.28
37610;BME280;23457;51.966;8.230;2022-12-18T05:23:41;102272.50;;;-9.07;85.35
37610;BME280;23457;51.966;8.230;2022-12-18T05:26:10;102272.16;;;-9.02;84.32
37610;BME280;23457;51.966;8.230;2022-12-18T05:28:40;102273.94;;;-9.09;84.78
37610;BME280;23457;51.966;8.230;2022-12-18T05:31:06;102283.84;;;-8.96;84.80
37610;BME280;23457;51.966;8.230;2022-12-18T05:33:34;102277.53;;;-8.85;83.91
37610;BME280;23457;51.966;8.230;2022-12-18T05:36:03;102272.69;;;-8.91;84.13
37610;BME280;23457;51.966;8.230;2022-12-18T05:38:31;102273.97;;;-8.87;83.95
37610;BME280;23457;51.966;8.230;2022-12-18T05:40:58;102262.41;;;-8.85;84.15
37610;BME280;23457;51.966;8.230;2022-12-18T05:43:26;102276.09;;;-8.83;83.72
37610;BME280;23457;51.966;8.230;2022-12-18T05:45:53;102266.72;;;-8.84;84.04
37610;BME280;23457;51.966;8.230;2022-12-18T05:48:23;102274.31;;;-8.77;84.34
37610;BME280;23457;51.966;8.230;2022-12-18T05:50:50;102257.91;;;-8.74;85.27
37610;BME280;23457;51.966;8.230;2022-12-18T05:53:18;102262.22;;;-8.65;85.07
37610;BME280;23457;51.966;8.230;2022-12-18T05:55:46;102265.97;;;-8.55;85.45
37610;BME280;23457;51.966;8.230;2022-12-18T05:58:14;102260.00;;;-8.48;85.18
37610;BME280;23457;51.966;8.230;2022-12-18T06:00:43;102264.16;;;-8.42;88.40
37610;BME280;23457;51.966;8.230;2022-12-18T06:03:11;102257.25;;;-8.28;86.83
37610;BME280;23457;51.966;8.230;2022-12-18T06:05:41;102261.97;;;-8.32;86.89
37610;BME280;23457;51.966;8.230;2022-12-18T06:08:08;102259.91;;;-8.20;89.62
37610;BME280;23457;51.966;8.230;2022-12-18T06:10:35;102268.16;;;-8.07;90.23
37610;BME280;23457;51.966;8.230;2022-12-18T06:13:02;102269.03;;;-7.99;91.29
37610;BME280;23457;51.966;8.230;2022-12-18T06:15:29;102274.41;;;-7.96;92.78
37610;BME280;23457;51.966;8.230;2022-12-18T06:17:56;102276.19;;;-7.88;91.80
37610;BME280;23457;51.966;8.230;2022-12-18T06:20:22;102273.28;;;-7.84;90.43
37610;BME280;23457;51.966;8.230;2022-12-18T06:22:53;102280.81;;;-7.77;89.94
37610;BME280;23457;51.966;8.230;2022-12-18T06:25:19;102279.22;;;-7.76;88.72
37610;BME280;23457;51.966;8.230;2022-12-18T06:27:47;102281.91;;;-7.75;89.54
37610;BME280;23457;51.966;8.230;2022-12-18T06:30:14;102289.50;;;-7.82;89.00
37610;BME280;23457;51.966;8.230;2022-12-18T06:32:41;102285.88;;;-7.77;88.83
37610;BME280;23457;51.966;8.230;2022-12-18T06:35:08;102280.81;;;-7.77;88.71
37610;BME280;23457;51.966;8.230;2022-12-18T06:37:34;102284.50;;;-7.89;88.05
37610;BME280;23457;51.966;8.230;2022-12-18T06:40:01;102290.75;;;-7.78;88.32
37610;BME280;23457;51.966;8.230;2022-12-18T06:42:28;102292.75;;;-7.83;88.39
37610;BME280;23457;51.966;8.230;2022-12-18T06:44:55;102298.75;;;-7.97;88.67
37610;BME280;23457;51.966;8.230;2022-12-18T06:47:22;102293.38;;;-8.00;89.18
37610;BME280;23457;51.966;8.230;2022-12-18T06:49:48;102297.84;;;-7.97;89.12
37610;BME280;23457;51.966;8.230;2022-12-18T06:52:15;102297.28;;;-7.87;88.80
37610;BME280;23457;51.966;8.230;2022-12-18T06:54:41;102305.53;;;-7.81;89.35
37610;BME280;23457;51.966;8.230;2022-12-18T06:57:23;102307.34;;;-7.80;90.39
37610;BME280;23457;51.966;8.230;2022-12-18T07:00:15;102312.38;;;-7.73;89.24
37610;BME280;23457;51.966;8.230;2022-12-18T07:02:41;102307.47;;;-7.72;88.07
37610;BME280;23457;51.966;8.230;2022-12-18T07:05:11;102310.41;;;-7.83;87.57
37610;BME280;23457;51.966;8.230;2022-12-18T07:07:48;102313.34;;;-7.87;87.76
37610;BME280;23457;51.966;8.230;2022-12-18T07:10:15;102307.19;;;-7.89;88.02
37610;BME280;23457;51.966;8.230;2022-12-18T07:12:41;102300.53;;;-7.88;87.66
37610;BME280;23457;51.966;8.230;2022-12-18T07:15:08;102300.00;;;-7.86;87.39
37610;BME280;23457;51.966;8.230;2022-12-18T07:17:35;102305.03;;;-7.93;87.80
37610;BME280;23457;51.966;8.230;2022-12-18T07:20:02;102310.81;;;-7.94;87.16
37610;BME280;23457;51.966;8.230;2022-12-18T07:22:29;102298.06;;;-8.03;87.79
37610;BME280;23457;51.966;8.230;2022-12-18T07:24:55;102304.31;;;-7.92;87.67
37610;BME280;23457;51.966;8.230;2022-12-18T07:27:22;102287.94;;;-7.96;87.76
37610;BME280;23457;51.966;8.230;2022-12-18T07:30:15;102293.56;;;-7.98;86.88
37610;BME280;23457;51.966;8.230;2022-12-18T07:32:41;102294.94;;;-7.93;87.00
37610;BME280;23457;51.966;8.230;2022-12-18T07:35:08;102293.56;;;-8.05;87.85
37610;BME280;23457;51.966;8.230;2022-12-18T07:37:35;102307.75;;;-7.91;87.02
37610;BME280;23457;51.966;8.230;2022-12-18T07:40:02;102304.50;;;-7.98;87.82
37610;BME280;23457;51.966;8.230;2022-12-18T07:42:28;102300.75;;;-8.01;87.54
37610;BME280;23457;51.966;8.230;2022-12-18T07:44:59;102293.16;;;-7.94;86.98
37610;BME280;23457;51.966;8.230;2022-12-18T07:47:27;102303.59;;;-7.91;86.59
37610;BME280;23457;51.966;8.230;2022-12-18T07:49:55;102301.97;;;-7.90;87.07
37610;BME280;23457;51.966;8.230;2022-12-18T07:52:22;102303.25;;;-7.94;86.87
37610;BME280;23457;51.966;8.230;2022-12-18T07:54:51;102294.41;;;-7.90;87.36
37610;BME280;23457;51.966;8.230;2022-12-18T07:57:18;102298.50;;;-7.77;87.28
37610;BME280;23457;51.966;8.230;2022-12-18T08:00:05;102296.69;;;-7.78;86.99
37610;BME280;23457;51.966;8.230;2022-12-18T08:02:37;102286.97;;;-7.82;86.74
37610;BME280;23457;51.966;8.230;2022-12-18T08:05:04;102281.56;;;-7.78;87.19
37610;BME280;23457;51.966;8.230;2022-12-18T08:07:32;102284.97;;;-7.77;88.61
37610;BME280;23457;51.966;8.230;2022-12-18T08:10:06;102276.44;;;-7.71;89.93
37610;BME280;23457;51.966;8.230;2022-12-18T08:12:33;102268.81;;;-7.56;90.85
37610;BME280;23457;51.966;8.230;2022-12-18T08:15:00;102265.66;;;-7.47;91.15
37610;BME280;23457;51.966;8.230;2022-12-18T08:17:26;102262.88;;;-7.34;96.17
37610;BME280;23457;51.966;8.230;2022-12-18T08:19:53;102268.53;;;-7.14;94.86
37610;BME280;23457;51.966;8.230;2022-12-18T08:22:20;102265.16;;;-6.99;94.96
37610;BME280;23457;51.966;8.230;2022-12-18T08:24:46;102244.91;;;-6.76;94.98
37610;BME280;23457;51.966;8.230;2022-12-18T08:27:13;102248.81;;;-6.71;94.89
37610;BME280;23457;51.966;8.230;2022-12-18T08:29:55;102252.84;;;-6.57;95.00
37610;BME280;23457;51.966;8.230;2022-12-18T08:32:22;102255.06;;;-6.44;94.83
37610;BME280;23457;51.966;8.230;2022-12-18T08:34:52;102257.13;;;-6.33;96.95
37610;BME280;23457;51.966;8.230;2022-12-18T08:37:19;102255.31;;;-6.19;97.45
37610;BME280;23457;51.966;8.230;2022-12-18T08:39:45;102253.97;;;-6.08;97.81
37610;BME280;23457;51.966;8.230;2022-12-18T08:42:16;102248.69;;;-5.94;99.00
37610;BME280;23457;51.966;8.230;2022-12-18T08:45:52;102249.38;;;-5.79;99.25
37610;BME280;23457;51.966;8.230;2022-12-18T08:49:06;102255.16;;;-5.64;100.00
37610;BME280;23457;51.966;8.230;2022-12-18T08:51:37;102258.38;;;-5.50;100.00
37610;BME280;23457;51.966;8.230;2022-12-18T08:54:04;102263.13;;;-5.53;99.59
37610;BME280;23457;51.966;8.230;2022-12-18T08:56:35;102245.19;;;-5.38;98.99
37610;BME280;23457;51.966;8.230;2022-12-18T08:59:02;102240.97;;;-5.22;99.25
37610;BME280;23457;51.966;8.230;2022-12-18T09:01:29;102236.44;;;-5.00;99.54
37610;BME280;23457;51.966;8.230;2022-12-18T09:03:56;102239.31;;;-4.89;100.00
37610;BME280;23457;51.966;8.230;2022-12-18T09:06:23;102226.38;;;-4.75;100.00
37610;BME280;23457;51.966;8.230;2022-12-18T09:08:50;102232.53;;;-4.64;100.00
37610;BME280;23457;51.966;8.230;2022-12-18T09:11:22;102235.44;;;-4.44;100.00
37610;BME280;23457;51.966;8.230;2022-12-18T09:13:53;102235.44;;;-4.26;100.00
37610;BME280;23457;51.966;8.230;2022-12-18T09:16:21;102240.97;;;-4.05;100.00
37610;BME280;23457;51.966;8.230;2022-12-18T09:18:57;102238.44;;;-3.87;100.00
37610;BME280;23457;51.966;8.230;2022-12-18T09:21:31;102233.03;;;-3.65;100.00
37610;BME280;23457;51.966;8.230;2022-12-18T09:24:01;102235.72;;;-3.46;100.00
37610;BME280;23457;51.966;8.230;2022-12-18T09:26:28;102230.94;;;-3.43;100.00
37610;BME280;23457;51.966;8.230;2022-12-18T09:28:54;102219.53;;;-3.38;100.00
37610;BME280;23457;51.966;8.230;2022-12-18T09:31:23;102222.59;;;-3.14;100.00
37610;BME280;23457;51.966;8.230;2022-12-18T09:33:51;102231.78;;;-3.34;100.00
37610;BME280;23457;51.966;8.230;2022-12-18T09:36:18;102224.69;;;-3.10;100.00
37610;BME280;23457;51.966;8.230;2022-12-18T09:38:48;102217.75;;;-2.94;100.00
37610;BME280;23457;51.966;8.230;2022-12-18T09:43:57;102233.06;;;-2.75;100.00
37610;BME280;23457;51.966;8.230;2022-12-18T09:46:39;102220.78;;;-2.71;100.00
37610;BME280;23457;51.966;8.230;2022-12-18T09:49:12;102229.72;;;-2.66;100.00
37610;BME280;23457;51.966;8.230;2022-12-18T09:51:44;102227.75;;;-2.60;100.00
37610;BME280;23457;51.966;8.230;2022-12-18T09:54:38;102235.22;;;-2.34;99.63
37610;BME280;23457;51.966;8.230;2022-12-18T09:57:14;102233.94;;;-2.20;99.17
37610;BME280;23457;51.966;8.230;2022-12-18T09:59:47;102236.00;;;-2.16;99.47
37610;BME280;23457;51.966;8.230;2022-12-18T10:02:19;102231.47;;;-2.10;98.80
37610;BME280;23457;51.966;8.230;2022-12-18T10:08:33;102224.16;;;-1.97;98.47
37610;BME280;23457;51.966;8.230;2022-12-18T10:10:42;102225.53;;;-1.82;98.12
37610;BME280;23457;51.966;8.230;2022-12-18T10:16:24;102217.84;;;-1.63;99.26
37610;BME280;23457;51.966;8.230;2022-12-18T10:21:42;102177.03;;;-1.44;98.57
37610;BME280;23457;51.966;8.230;2022-12-18T10:24:14;102165.31;;;-1.32;97.53
37610;BME280;23457;51.966;8.230;2022-12-18T10:26:47;102160.72;;;-1.36;96.86
37610;BME280;23457;51.966;8.230;2022-12-18T10:31:54;102143.28;;;-1.21;97.36
37610;BME280;23457;51.966;8.230;2022-12-18T10:34:21;102140.25;;;-1.07;95.98
37610;BME280;23457;51.966;8.230;2022-12-18T10:37:15;102142.81;;;-0.97;95.83
37610;BME280;23457;51.966;8.230;2022-12-18T10:39:43;102145.22;;;-0.98;95.90
37610;BME280;23457;51.966;8.230;2022-12-18T10:42:17;102150.34;;;-0.88;96.59
37610;BME280;23457;51.966;8.230;2022-12-18T10:44:44;102142.06;;;-0.76;94.18
37610;BME280;23457;51.966;8.230;2022-12-18T10:47:14;102151.41;;;-0.76;94.21
37610;BME280;23457;51.966;8.230;2022-12-18T10:49:50;102144.09;;;-0.92;93.85
37610;BME280;23457;51.966;8.230;2022-12-18T10:52:21;102141.94;;;-0.77;93.61
37610;BME280;23457;51.966;8.230;2022-12-18T10:55:03;102135.06;;;-0.68;94.07
37610;BME280;23457;51.966;8.230;2022-12-18T11:03:33;102104.28;;;-0.80;94.11
37610;BME280;23457;51.966;8.230;2022-12-18T11:06:05;102088.59;;;-0.94;94.99
37610;BME280;23457;51.966;8.230;2022-12-18T11:08:33;102090.38;;;-0.73;93.54
37610;BME280;23457;51.966;8.230;2022-12-18T11:10:59;102082.56;;;-0.75;92.84
37610;BME280;23457;51.966;8.230;2022-12-18T11:13:29;102080.66;;;-0.67;91.71
37610;BME280;23457;51.966;8.230;2022-12-18T11:16:22;102066.75;;;-0.70;91.66
37610;BME280;23457;51.966;8.230;2022-12-18T11:18:50;102056.72;;;-0.37;92.35
37610;BME280;23457;51.966;8.230;2022-12-18T11:21:17;102066.53;;;-0.31;92.23
37610;BME280;23457;51.966;8.230;2022-12-18T11:23:50;102073.28;;;-0.22;90.78
37610;BME280;23457;51.966;8.230;2022-12-18T11:26:17;102072.31;;;-0.44;89.74
37610;BME280;23457;51.966;8.230;2022-12-18T11:28:45;102068.72;;;-0.36;89.78
37610;BME280;23457;51.966;8.230;2022-12-18T11:31:27;102067.69;;;-0.28;89.21
37610;BME280;23457;51.966;8.230;2022-12-18T11:36:47;102052.94;;;-0.10;88.48
37610;BME280;23457;51.966;8.230;2022-12-18T11:39:40;102055.91;;;-0.16;87.19
37610;BME280;23457;51.966;8.230;2022-12-18T11:42:20;102056.19;;;0.09;86.82
37610;BME280;23457;51.966;8.230;2022-12-18T11:44:53;102047.50;;;0.07;87.04
37610;BME280;23457;51.966;8.230;2022-12-18T11:50:00;102034.91;;;-0.02;87.46
37610;BME280;23457;51.966;8.230;2022-12-18T11:52:36;102025.66;;;0.00;85.49
37610;BME280;23457;51.966;8.230;2022-12-18T12:01:53;101987.94;;;0.08;84.62
37610;BME280;23457;51.966;8.230;2022-12-18T12:07:27;101989.72;;;0.31;83.67
37610;BME280;23457;51.966;8.230;2022-12-18T12:17:54;101987.28;;;0.32;83.26
37610;BME280;23457;51.966;8.230;2022-12-18T12:23:28;101981.47;;;0.57;79.99
37610;BME280;23457;51.966;8.230;2022-12-18T12:29:46;101971.44;;;0.48;82.51
37610;BME280;23457;51.966;8.230;2022-12-18T12:38:40;101978.13;;;0.58;77.80
37610;BME280;23457;51.966;8.230;2022-12-18T12:41:21;101992.88;;;0.72;76.68
37610;BME280;23457;51.966;8.230;2022-12-18T12:44:54;101987.31;;;0.89;76.21
37610;BME280;23457;51.966;8.230;2022-12-18T12:47:27;101984.84;;;0.79;77.46
37610;BME280;23457;51.966;8.230;2022-12-18T12:50:22;101991.19;;;0.73;76.05
37610;BME280;23457;51.966;8.230;2022-12-18T12:52:52;101983.03;;;0.66;76.37
37610;BME280;23457;51.966;8.230;2022-12-18T12:55:22;101971.53;;;0.83;75.56
37610;BME280;23457;51.966;8.230;2022-12-18T12:58:05;101957.63;;;0.91;74.75
37610;BME280;23457;51.966;8.230;2022-12-18T13:06:56;101948.03;;;0.77;72.73
37610;BME280;23457;51.966;8.230;2022-12-18T13:09:34;101934.81;;;0.83;73.08
37610;BME280;23457;51.966;8.230;2022-12-18T13:12:22;101934.28;;;1.10;72.65
37610;BME280;23457;51.966;8.230;2022-12-18T13:15:27;101924.16;;;0.88;72.47
37610;BME280;23457;51.966;8.230;2022-12-18T13:18:25;101929.56;;;0.81;70.75
37610;BME280;23457;51.966;8.230;2022-12-18T13:23:33;101908.56;;;0.85;69.88
37610;BME280;23457;51.966;8.230;2022-12-18T13:34:27;101904.44;;;0.99;68.89
37610;BME280;23457;51.966;8.230;2022-12-18T13:39:58;101901.88;;;0.99;68.08
37610;BME280;23457;51.966;8.230;2022-12-18T13:42:51;101900.88;;;0.97;69.68
37610;BME280;23457;51.966;8.230;2022-12-18T13:45:50;101905.41;;;0.89;67.70
37610;BME280;23457;51.966;8.230;2022-12-18T13:48:26;101897.00;;;1.14;68.02
37610;BME280;23457;51.966;8.230;2022-12-18T13:51:08;101900.09;;;0.98;66.62
37610;BME280;23457;51.966;8.230;2022-12-18T13:53:42;101894.50;;;1.15;66.14
37610;BME280;23457;51.966;8.230;2022-12-18T13:56:28;101893.63;;;1.03;66.78
37610;BME280;23457;51.966;8.230;2022-12-18T13:59:15;101889.84;;;1.10;66.22
37610;BME280;23457;51.966;8.230;2022-12-18T14:04:18;101881.63;;;1.14;65.12
37610;BME280;23457;51.966;8.230;2022-12-18T14:09:41;101890.09;;;1.01;65.80
37610;BME280;23457;51.966;8.230;2022-12-18T14:12:17;101887.41;;;0.99;65.14
37610;BME280;23457;51.966;8.230;2022-12-18T14:15:06;101886.28;;;1.07;65.38
37610;BME280;23457;51.966;8.230;2022-12-18T14:17:54;101896.41;;;0.94;64.88
37610;BME280;23457;51.966;8.230;2022-12-18T14:20:22;101875.38;;;1.22;65.13
37610;BME280;23457;51.966;8.230;2022-12-18T14:22:50;101866.03;;;1.22;65.11
37610;BME280;23457;51.966;8.230;2022-12-18T14:25:23;101868.38;;;1.07;63.82
37610;BME280;23457;51.966;8.230;2022-12-18T14:28:14;101871.59;;;1.05;63.13
37610;BME280;23457;51.966;8.230;2022-12-18T14:30:44;101877.38;;;1.26;63.33
37610;BME280;23457;51.966;8.230;2022-12-18T14:33:23;101873.59;;;1.21;63.42
37610;BME280;23457;51.966;8.230;2022-12-18T14:36:05;101858.59;;;1.14;63.24
37610;BME280;23457;51.966;8.230;2022-12-18T14:38:33;101870.16;;;1.08;62.98
37610;BME280;23457;51.966;8.230;2022-12-18T14:41:11;101866.28;;;1.14;62.58
37610;BME280;23457;51.966;8.230;2022-12-18T14:43:49;101866.25;;;1.25;62.14
37610;BME280;23457;51.966;8.230;2022-12-18T14:46:36;101855.91;;;1.24;61.25
37610;BME280;23457;51.966;8.230;2022-12-18T14:49:26;101850.91;;;1.14;61.54
37610;BME280;23457;51.966;8.230;2022-12-18T14:51:59;101846.19;;;1.20;61.80